sensor_id;sensor_type;location;lat;lon;timestamp;temperature;humidity
17762;DHT22;9005;48.838;10.112;2023-07-20T00:01:49;18.50;1.00
17762;DHT22;9005;48.838;10.112;2023-07-20T00:04:16;18.50;1.00
17762;DHT22;9005;48.838;10.112;2023-07-20T00:06:42;18.60;1.00
17762;DHT22;9005;48.838;10.112;2023-07-20T00:09:09;18.50;1.00
17762;DHT22;9005;48.838;10.112;2023-07-20T00:11:37;18.60;1.00
17762;DHT22;9005;48.838;10.112;2023-07-20T00:14:04;18.60;1.00
17762;DHT22;9005;48.838;10.112;2023-07-20T00:16:32;18.60;1.00
17762;DHT22;9005;48.838;10.112;2023-07-20T00:18:59;18.60;1.00
17762;DHT22;9005;48.838;10.112;2023-07-20T00:21:26;18.60;1.00
17762;DHT22;9005;48.838;10.112;2023-07-20T00:23:53;18.60;1.00
17762;DHT22;9005;48.838;10.112;2023-07-20T00:26:19;18.60;1.00
17762;DHT22;9005;48.838;10.112;2023-07-20T00:28:46;18.60;1.00
17762;DHT22;9005;48.838;10.112;2023-07-20T00:31:13;18.60;1.00
17762;DHT22;9005;48.838;10.112;2023-07-20T00:33:41;18.60;1.00
17762;DHT22;9005;48.838;10.112;2023-07-20T00:36:08;18.60;1.00
17762;DHT22;9005;48.838;10.112;2023-07-20T00:38:34;18.60;1.00
17762;DHT22;9005;48.838;10.112;2023-07-20T00:41:01;18.60;1.00
17762;DHT22;9005;48.838;10.112;2023-07-20T00:43:28;18.60;1.00
17762;DHT22;9005;48.838;10.112;2023-07-20T00:45:55;18.60;1.00
17762;DHT22;9005;48.838;10.112;2023-07-20T00:48:22;18.60;1.00
17762;DHT22;9005;48.838;10.112;2023-07-20T00:50:50;18.60;26.40
17762;DHT22;9005;48.838;10.112;2023-07-20T00:53:17;18.60;1.00
17762;DHT22;9005;48.838;10.112;2023-07-20T00:55:44;18.60;20.50
17762;DHT22;9005;48.838;10.112;2023-07-20T00:58:11;18.60;4.50
17762;DHT22;9005;48.838;10.112;2023-07-20T01:00:38;18.60;19.90
17762;DHT22;9005;48.838;10.112;2023-07-20T01:03:04;18.50;1.00
17762;DHT22;9005;48.838;10.112;2023-07-20T01:05:38;18.50;1.00
17762;DHT22;9005;48.838;10.112;2023-07-20T01:08:13;18.50;1.00
17762;DHT22;9005;48.838;10.112;2023-07-20T01:10:45;18.50;1.00
17762;DHT22;9005;48.838;10.112;2023-07-20T01:13:14;18.50;1.00
17762;DHT22;9005;48.838;10.112;2023-07-20T01:15:41;18.40;1.00
17762;DHT22;9005;48.838;10.112;2023-07-20T01:18:07;18.40;1.00
17762;DHT22;9005;48.838;10.112;2023-07-20T01:20:35;18.50;1.00
17762;DHT22;9005;48.838;10.112;2023-07-20T01:26:10;18.40;1.00
17762;DHT22;9005;48.838;10.112;2023-07-20T01:28:57;18.30;1.00
17762;DHT22;9005;48.838;10.112;2023-07-20T01:31:36;18.30;1.00
17762;DHT22;9005;48.838;10.112;2023-07-20T01:34:06;18.30;1.00
17762;DHT22;9005;48.838;10.112;2023-07-20T01:36:36;18.30;1.00
17762;DHT22;9005;48.838;10.112;2023-07-20T01:39:04;18.20;1.00
17762;DHT22;9005;48.838;10.112;2023-07-20T01:41:33;18.20;1.00
17762;DHT22;9005;48.838;10.112;2023-07-20T01:44:00;18.10;1.00
17762;DHT22;9005;48.838;10.112;2023-07-20T01:46:26;18.10;1.00
17762;DHT22;9005;48.838;10.112;2023-07-20T01:48:55;18.00;1.00
17762;DHT22;9005;48.838;10.112;2023-07-20T01:51:22;18.00;1.00
17762;DHT22;9005;48.838;10.112;2023-07-20T01:53:48;17.80;1.00
17762;DHT22;9005;48.838;10.112;2023-07-20T01:58:42;17.70;1.00
17762;DHT22;9005;48.838;10.112;2023-07-20T02:01:09;17.70;1.00
17762;DHT22;9005;48.838;10.112;2023-07-20T02:03:36;17.60;1.00
17762;DHT22;9005;48.838;10.112;2023-07-20T02:06:04;17.50;1.00
17762;DHT22;9005;48.838;10.112;2023-07-20T02:08:30;17.50;1.00
17762;DHT22;9005;48.838;10.112;2023-07-20T02:10:57;17.40;1.00
17762;DHT22;9005;48.838;10.112;2023-07-20T02:13:24;17.40;1.00
17762;DHT22;9005;48.838;10.112;2023-07-20T02:15:51;17.30;1.00
17762;DHT22;9005;48.838;10.112;2023-07-20T02:18:17;17.20;5.90
17762;DHT22;9005;48.838;10.112;2023-07-20T02:20:44;17.20;14.40
17762;DHT22;9005;48.838;10.112;2023-07-20T02:23:12;17.10;17.20
17762;DHT22;9005;48.838;10.112;2023-07-20T02:25:39;17.00;15.80
17762;DHT22;9005;48.838;10.112;2023-07-20T02:28:07;17.00;25.20
17762;DHT22;9005;48.838;10.112;2023-07-20T02:30:37;17.00;56.30
17762;DHT22;9005;48.838;10.112;2023-07-20T02:33:03;16.90;31.70
17762;DHT22;9005;48.838;10.112;2023-07-20T02:35:31;16.80;50.00
17762;DHT22;9005;48.838;10.112;2023-07-20T02:37:58;16.80;84.50
17762;DHT22;9005;48.838;10.112;2023-07-20T02:40:26;16.70;84.90
17762;DHT22;9005;48.838;10.112;2023-07-20T02:42:53;16.70;91.50
17762;DHT22;9005;48.838;10.112;2023-07-20T02:45:19;16.70;99.90
17762;DHT22;9005;48.838;10.112;2023-07-20T02:47:46;16.70;94.10
17762;DHT22;9005;48.838;10.112;2023-07-20T02:50:13;16.70;96.10
17762;DHT22;9005;48.838;10.112;2023-07-20T02:52:40;16.80;97.80
17762;DHT22;9005;48.838;10.112;2023-07-20T02:55:07;16.70;96.50
17762;DHT22;9005;48.838;10.112;2023-07-20T02:57:35;16.80;99.90
17762;DHT22;9005;48.838;10.112;2023-07-20T03:00:02;16.70;96.40
17762;DHT22;9005;48.838;10.112;2023-07-20T03:02:31;16.70;99.90
17762;DHT22;9005;48.838;10.112;2023-07-20T03:04:58;16.70;97.80
17762;DHT22;9005;48.838;10.112;2023-07-20T03:07:27;16.70;99.90
17762;DHT22;9005;48.838;10.112;2023-07-20T03:09:53;16.70;99.90
17762;DHT22;9005;48.838;10.112;2023-07-20T03:12:20;16.70;99.90
17762;DHT22;9005;48.838;10.112;2023-07-20T03:14:48;16.70;99.90
17762;DHT22;9005;48.838;10.112;2023-07-20T03:17:15;16.70;99.90
17762;DHT22;9005;48.838;10.112;2023-07-20T03:19:42;16.60;99.90
17762;DHT22;9005;48.838;10.112;2023-07-20T03:22:09;16.60;99.90
17762;DHT22;9005;48.838;10.112;2023-07-20T03:24:35;16.60;99.90
17762;DHT22;9005;48.838;10.112;2023-07-20T03:27:02;16.50;99.90
17762;DHT22;9005;48.838;10.112;2023-07-20T03:29:31;16.40;99.90
17762;DHT22;9005;48.838;10.112;2023-07-20T03:31:59;16.30;99.90
17762;DHT22;9005;48.838;10.112;2023-07-20T03:34:26;16.20;99.90
17762;DHT22;9005;48.838;10.112;2023-07-20T03:36:53;16.20;99.90
17762;DHT22;9005;48.838;10.112;2023-07-20T03:39:20;16.10;99.90
17762;DHT22;9005;48.838;10.112;2023-07-20T03:41:46;14.80;99.90
17762;DHT22;9005;48.838;10.112;2023-07-20T03:44:13;16.00;99.90
17762;DHT22;9005;48.838;10.112;2023-07-20T03:46:40;15.90;99.90
17762;DHT22;9005;48.838;10.112;2023-07-20T03:49:08;15.90;99.90
17762;DHT22;9005;48.838;10.112;2023-07-20T03:51:35;15.80;99.90
17762;DHT22;9005;48.838;10.112;2023-07-20T03:54:02;15.80;99.90
17762;DHT22;9005;48.838;10.112;2023-07-20T03:56:29;15.70;99.90
17762;DHT22;9005;48.838;10.112;2023-07-20T03:58:59;15.70;99.90
17762;DHT22;9005;48.838;10.112;2023-07-20T04:01:26;15.60;99.90
17762;DHT22;9005;48.838;10.112;2023-07-20T04:03:53;15.60;99.90
17762;DHT22;9005;48.838;10.112;2023-07-20T04:06:21;15.60;99.90
17762;DHT22;9005;48.838;10.112;2023-07-20T04:08:48;15.60;99.90
17762;DHT22;9005;48.838;10.112;2023-07-20T04:11:14;15.50;99.90
17762;DHT22;9005;48.838;10.112;2023-07-20T04:13:42;15.50;99.90
17762;DHT22;9005;48.838;10.112;2023-07-20T04:16:08;15.50;99.90
17762;DHT22;9005;48.838;10.112;2023-07-20T04:18:35;15.50;99.90
17762;DHT22;9005;48.838;10.112;2023-07-20T04:21:02;15.50;99.90
17762;DHT22;9005;48.838;10.112;2023-07-20T04:23:30;15.40;99.90
17762;DHT22;9005;48.838;10.112;2023-07-20T04:25:56;15.40;99.90
17762;DHT22;9005;48.838;10.112;2023-07-20T04:28:23;15.40;99.90
17762;DHT22;9005;48.838;10.112;2023-07-20T04:30:50;15.50;99.90
17762;DHT22;9005;48.838;10.112;2023-07-20T04:33:17;15.50;99.90
17762;DHT22;9005;48.838;10.112;2023-07-20T04:35:49;15.50;99.90
17762;DHT22;9005;48.838;10.112;2023-07-20T04:38:16;15.50;99.90
17762;DHT22;9005;48.838;10.112;2023-07-20T04:40:45;15.50;99.90
17762;DHT22;9005;48.838;10.112;2023-07-20T04:43:12;15.50;1.00
17762;DHT22;9005;48.838;10.112;2023-07-20T04:45:39;15.50;99.90
17762;DHT22;9005;48.838;10.112;2023-07-20T04:48:09;15.50;99.90
17762;DHT22;9005;48.838;10.112;2023-07-20T04:50:36;15.50;99.90
17762;DHT22;9005;48.838;10.112;2023-07-20T04:53:03;15.50;99.90
17762;DHT22;9005;48.838;10.112;2023-07-20T04:55:30;15.50;99.90
17762;DHT22;9005;48.838;10.112;2023-07-20T04:58:00;15.50;99.90
17762;DHT22;9005;48.838;10.112;2023-07-20T05:00:27;15.40;99.90
17762;DHT22;9005;48.838;10.112;2023-07-20T05:02:53;15.60;99.90
17762;DHT22;9005;48.838;10.112;2023-07-20T05:05:20;15.70;99.90
17762;DHT22;9005;48.838;10.112;2023-07-20T05:07:47;15.60;99.90
17762;DHT22;9005;48.838;10.112;2023-07-20T05:10:14;15.70;99.90
17762;DHT22;9005;48.838;10.112;2023-07-20T05:12:41;15.80;99.90
17762;DHT22;9005;48.838;10.112;2023-07-20T05:15:09;15.80;99.90
17762;DHT22;9005;48.838;10.112;2023-07-20T05:17:36;15.80;99.90
17762;DHT22;9005;48.838;10.112;2023-07-20T05:20:03;15.80;99.90
17762;DHT22;9005;48.838;10.112;2023-07-20T05:22:30;16.10;99.90
17762;DHT22;9005;48.838;10.112;2023-07-20T05:24:57;16.00;99.90
17762;DHT22;9005;48.838;10.112;2023-07-20T05:27:24;16.00;99.90
17762;DHT22;9005;48.838;10.112;2023-07-20T05:29:51;16.10;99.90
17762;DHT22;9005;48.838;10.112;2023-07-20T05:32:19;16.10;99.90
17762;DHT22;9005;48.838;10.112;2023-07-20T05:34:46;16.10;99.90
17762;DHT22;9005;48.838;10.112;2023-07-20T05:37:12;16.10;99.90
17762;DHT22;9005;48.838;10.112;2023-07-20T05:39:39;16.20;99.90
17762;DHT22;9005;48.838;10.112;2023-07-20T05:42:06;16.20;99.90
17762;DHT22;9005;48.838;10.112;2023-07-20T05:44:33;16.30;99.90
17762;DHT22;9005;48.838;10.112;2023-07-20T05:46:59;16.20;99.90
17762;DHT22;9005;48.838;10.112;2023-07-20T05:49:29;16.30;99.90
17762;DHT22;9005;48.838;10.112;2023-07-20T05:51:56;16.30;99.90
17762;DHT22;9005;48.838;10.112;2023-07-20T05:54:24;16.40;99.90
17762;DHT22;9005;48.838;10.112;2023-07-20T05:56:52;16.40;99.90
17762;DHT22;9005;48.838;10.112;2023-07-20T05:59:18;16.50;99.90
17762;DHT22;9005;48.838;10.112;2023-07-20T06:01:46;16.50;99.90
17762;DHT22;9005;48.838;10.112;2023-07-20T06:04:13;16.60;99.90
17762;DHT22;9005;48.838;10.112;2023-07-20T06:06:42;16.60;99.90
17762;DHT22;9005;48.838;10.112;2023-07-20T06:09:08;16.70;99.90
17762;DHT22;9005;48.838;10.112;2023-07-20T06:11:37;16.70;99.90
17762;DHT22;9005;48.838;10.112;2023-07-20T06:14:04;16.70;99.90
17762;DHT22;9005;48.838;10.112;2023-07-20T06:18:59;16.80;99.90
17762;DHT22;9005;48.838;10.112;2023-07-20T06:21:26;16.80;99.90
17762;DHT22;9005;48.838;10.112;2023-07-20T06:23:54;16.80;99.90
17762;DHT22;9005;48.838;10.112;2023-07-20T07:10:35;18.40;1.00
17762;DHT22;9005;48.838;10.112;2023-07-20T07:13:02;18.30;1.00
17762;DHT22;9005;48.838;10.112;2023-07-20T07:15:31;18.30;25.10
17762;DHT22;9005;48.838;10.112;2023-07-20T07:17:57;18.20;5.80
17762;DHT22;9005;48.838;10.112;2023-07-20T07:20:25;18.20;15.00
17762;DHT22;9005;48.838;10.112;2023-07-20T07:22:53;18.20;44.80
17762;DHT22;9005;48.838;10.112;2023-07-20T07:25:21;18.20;64.10
17762;DHT22;9005;48.838;10.112;2023-07-20T07:27:47;18.30;54.80
17762;DHT22;9005;48.838;10.112;2023-07-20T07:30:14;18.50;16.20
17762;DHT22;9005;48.838;10.112;2023-07-20T07:32:42;18.60;5.50
17762;DHT22;9005;48.838;10.112;2023-07-20T07:35:09;18.60;1.00
17762;DHT22;9005;48.838;10.112;2023-07-20T07:37:37;18.60;1.00
17762;DHT22;9005;48.838;10.112;2023-07-20T07:40:04;18.50;1.00
17762;DHT22;9005;48.838;10.112;2023-07-20T07:42:32;18.50;1.00
17762;DHT22;9005;48.838;10.112;2023-07-20T07:44:59;18.50;1.00
17762;DHT22;9005;48.838;10.112;2023-07-20T07:47:25;18.50;1.00
17762;DHT22;9005;48.838;10.112;2023-07-20T07:49:54;18.50;1.00
17762;DHT22;9005;48.838;10.112;2023-07-20T07:52:20;18.60;1.00
17762;DHT22;9005;48.838;10.112;2023-07-20T07:54:47;18.60;2.00
17762;DHT22;9005;48.838;10.112;2023-07-20T07:57:14;18.70;1.00
17762;DHT22;9005;48.838;10.112;2023-07-20T07:59:41;18.80;1.00
17762;DHT22;9005;48.838;10.112;2023-07-20T08:02:07;18.80;1.00
17762;DHT22;9005;48.838;10.112;2023-07-20T08:04:34;18.70;1.00
17762;DHT22;9005;48.838;10.112;2023-07-20T08:07:04;18.70;1.00
17762;DHT22;9005;48.838;10.112;2023-07-20T08:09:31;18.70;1.00
17762;DHT22;9005;48.838;10.112;2023-07-20T08:11:58;18.80;1.00
17762;DHT22;9005;48.838;10.112;2023-07-20T08:14:25;18.80;1.00
17762;DHT22;9005;48.838;10.112;2023-07-20T08:16:51;18.80;1.00
17762;DHT22;9005;48.838;10.112;2023-07-20T08:19:19;18.90;1.00
17762;DHT22;9005;48.838;10.112;2023-07-20T08:21:46;18.90;1.00
17762;DHT22;9005;48.838;10.112;2023-07-20T08:24:14;19.00;1.00
17762;DHT22;9005;48.838;10.112;2023-07-20T08:26:41;19.10;1.00
17762;DHT22;9005;48.838;10.112;2023-07-20T08:29:08;19.20;1.00
17762;DHT22;9005;48.838;10.112;2023-07-20T08:31:35;19.30;1.00
17762;DHT22;9005;48.838;10.112;2023-07-20T08:34:02;19.40;1.00
17762;DHT22;9005;48.838;10.112;2023-07-20T08:36:28;19.40;1.00
17762;DHT22;9005;48.838;10.112;2023-07-20T08:38:56;19.50;1.00
17762;DHT22;9005;48.838;10.112;2023-07-20T08:41:24;19.50;1.00
17762;DHT22;9005;48.838;10.112;2023-07-20T08:43:53;19.40;1.00
17762;DHT22;9005;48.838;10.112;2023-07-20T08:46:22;19.40;1.00
17762;DHT22;9005;48.838;10.112;2023-07-20T08:48:50;19.50;1.00
17762;DHT22;9005;48.838;10.112;2023-07-20T08:51:18;19.60;1.00
17762;DHT22;9005;48.838;10.112;2023-07-20T08:53:46;19.70;1.00
17762;DHT22;9005;48.838;10.112;2023-07-20T08:56:14;19.80;1.00
17762;DHT22;9005;48.838;10.112;2023-07-20T08:58:44;19.90;1.00
17762;DHT22;9005;48.838;10.112;2023-07-20T09:01:11;20.00;1.00
17762;DHT22;9005;48.838;10.112;2023-07-20T09:03:38;20.00;1.00
17762;DHT22;9005;48.838;10.112;2023-07-20T09:06:05;19.90;1.00
17762;DHT22;9005;48.838;10.112;2023-07-20T09:08:32;20.00;1.00
17762;DHT22;9005;48.838;10.112;2023-07-20T09:10:59;20.00;1.00
17762;DHT22;9005;48.838;10.112;2023-07-20T09:13:26;20.10;1.00
17762;DHT22;9005;48.838;10.112;2023-07-20T09:15:54;20.10;1.00
17762;DHT22;9005;48.838;10.112;2023-07-20T09:18:24;20.20;1.00
17762;DHT22;9005;48.838;10.112;2023-07-20T09:20:51;20.40;1.00
17762;DHT22;9005;48.838;10.112;2023-07-20T09:23:18;20.70;1.00
17762;DHT22;9005;48.838;10.112;2023-07-20T09:25:47;20.70;1.00
17762;DHT22;9005;48.838;10.112;2023-07-20T09:28:16;20.80;1.00
17762;DHT22;9005;48.838;10.112;2023-07-20T09:30:43;20.90;1.00
17762;DHT22;9005;48.838;10.112;2023-07-20T09:33:21;20.80;1.00
17762;DHT22;9005;48.838;10.112;2023-07-20T09:35:48;20.70;1.00
17762;DHT22;9005;48.838;10.112;2023-07-20T09:38:15;20.60;1.00
17762;DHT22;9005;48.838;10.112;2023-07-20T09:40:42;20.60;1.00
17762;DHT22;9005;48.838;10.112;2023-07-20T09:43:10;20.60;1.00
17762;DHT22;9005;48.838;10.112;2023-07-20T09:45:40;20.70;1.00
17762;DHT22;9005;48.838;10.112;2023-07-20T09:48:09;20.80;1.00
17762;DHT22;9005;48.838;10.112;2023-07-20T09:50:41;20.90;1.00
17762;DHT22;9005;48.838;10.112;2023-07-20T09:53:11;21.00;1.00
17762;DHT22;9005;48.838;10.112;2023-07-20T09:55:40;20.90;1.00
17762;DHT22;9005;48.838;10.112;2023-07-20T09:58:09;20.80;1.00
17762;DHT22;9005;48.838;10.112;2023-07-20T10:00:37;20.90;1.00
17762;DHT22;9005;48.838;10.112;2023-07-20T10:03:04;21.00;1.00
17762;DHT22;9005;48.838;10.112;2023-07-20T10:05:33;21.20;1.00
17762;DHT22;9005;48.838;10.112;2023-07-20T10:08:03;21.20;1.00
17762;DHT22;9005;48.838;10.112;2023-07-20T10:10:33;21.30;1.00
17762;DHT22;9005;48.838;10.112;2023-07-20T10:13:01;21.50;1.00
17762;DHT22;9005;48.838;10.112;2023-07-20T10:15:32;21.60;1.00
17762;DHT22;9005;48.838;10.112;2023-07-20T10:18:03;21.80;1.00
17762;DHT22;9005;48.838;10.112;2023-07-20T10:20:36;22.10;1.00
17762;DHT22;9005;48.838;10.112;2023-07-20T10:23:08;22.30;1.00
17762;DHT22;9005;48.838;10.112;2023-07-20T10:25:35;22.30;1.00
17762;DHT22;9005;48.838;10.112;2023-07-20T10:28:04;22.20;1.00
17762;DHT22;9005;48.838;10.112;2023-07-20T10:30:32;22.30;1.00
17762;DHT22;9005;48.838;10.112;2023-07-20T10:33:01;22.80;1.00
17762;DHT22;9005;48.838;10.112;2023-07-20T10:35:29;23.00;1.00
17762;DHT22;9005;48.838;10.112;2023-07-20T10:38:00;22.50;1.00
17762;DHT22;9005;48.838;10.112;2023-07-20T10:40:30;22.10;1.00
17762;DHT22;9005;48.838;10.112;2023-07-20T10:42:57;22.60;1.00
17762;DHT22;9005;48.838;10.112;2023-07-20T10:45:34;22.60;1.00
17762;DHT22;9005;48.838;10.112;2023-07-20T10:48:03;23.60;1.00
17762;DHT22;9005;48.838;10.112;2023-07-20T10:50:31;24.40;1.00
17762;DHT22;9005;48.838;10.112;2023-07-20T10:53:05;24.90;1.00
17762;DHT22;9005;48.838;10.112;2023-07-20T10:55:37;25.20;1.00
17762;DHT22;9005;48.838;10.112;2023-07-20T10:58:08;25.90;1.00
17762;DHT22;9005;48.838;10.112;2023-07-20T11:00:35;26.70;1.00
17762;DHT22;9005;48.838;10.112;2023-07-20T11:03:02;26.60;1.00
17762;DHT22;9005;48.838;10.112;2023-07-20T11:05:33;26.70;1.00
17762;DHT22;9005;48.838;10.112;2023-07-20T11:08:02;27.00;1.00
17762;DHT22;9005;48.838;10.112;2023-07-20T11:10:29;26.90;1.00
17762;DHT22;9005;48.838;10.112;2023-07-20T11:13:24;26.90;1.00
17762;DHT22;9005;48.838;10.112;2023-07-20T11:16:04;26.10;1.00
17762;DHT22;9005;48.838;10.112;2023-07-20T11:18:34;25.60;1.00
17762;DHT22;9005;48.838;10.112;2023-07-20T11:21:01;25.60;1.00
17762;DHT22;9005;48.838;10.112;2023-07-20T11:23:29;26.10;1.00
17762;DHT22;9005;48.838;10.112;2023-07-20T11:25:58;26.50;1.00
17762;DHT22;9005;48.838;10.112;2023-07-20T11:28:30;26.70;1.00
17762;DHT22;9005;48.838;10.112;2023-07-20T11:30:56;26.10;1.00
17762;DHT22;9005;48.838;10.112;2023-07-20T11:33:23;25.90;1.00
17762;DHT22;9005;48.838;10.112;2023-07-20T11:35:50;25.80;1.00
17762;DHT22;9005;48.838;10.112;2023-07-20T11:38:18;25.60;1.00
17762;DHT22;9005;48.838;10.112;2023-07-20T11:40:45;25.40;1.00
17762;DHT22;9005;48.838;10.112;2023-07-20T11:43:12;25.00;1.00
17762;DHT22;9005;48.838;10.112;2023-07-20T11:45:41;25.50;1.00
17762;DHT22;9005;48.838;10.112;2023-07-20T11:48:14;26.00;1.00
17762;DHT22;9005;48.838;10.112;2023-07-20T11:50:41;26.30;99.90
17762;DHT22;9005;48.838;10.112;2023-07-20T11:53:08;26.20;99.90
17762;DHT22;9005;48.838;10.112;2023-07-20T11:55:35;26.50;99.90
17762;DHT22;9005;48.838;10.112;2023-07-20T11:58:03;26.90;99.90
17762;DHT22;9005;48.838;10.112;2023-07-20T12:00:30;27.10;99.90
17762;DHT22;9005;48.838;10.112;2023-07-20T12:02:59;27.20;99.90
17762;DHT22;9005;48.838;10.112;2023-07-20T12:05:26;27.20;99.90
17762;DHT22;9005;48.838;10.112;2023-07-20T12:07:54;27.10;1.00
17762;DHT22;9005;48.838;10.112;2023-07-20T12:10:25;27.00;1.00
17762;DHT22;9005;48.838;10.112;2023-07-20T12:12:52;26.50;1.00
17762;DHT22;9005;48.838;10.112;2023-07-20T12:15:24;26.30;1.00
17762;DHT22;9005;48.838;10.112;2023-07-20T12:17:53;26.30;1.00
17762;DHT22;9005;48.838;10.112;2023-07-20T12:20:29;26.10;1.00
17762;DHT22;9005;48.838;10.112;2023-07-20T12:22:57;26.50;1.00
17762;DHT22;9005;48.838;10.112;2023-07-20T12:25:32;27.20;1.00
17762;DHT22;9005;48.838;10.112;2023-07-20T12:28:00;27.80;99.90
17762;DHT22;9005;48.838;10.112;2023-07-20T12:30:29;27.30;99.90
17762;DHT22;9005;48.838;10.112;2023-07-20T12:32:55;26.20;99.90
17762;DHT22;9005;48.838;10.112;2023-07-20T12:35:22;25.60;99.90
17762;DHT22;9005;48.838;10.112;2023-07-20T12:37:50;25.80;99.90
17762;DHT22;9005;48.838;10.112;2023-07-20T12:40:17;26.20;99.90
17762;DHT22;9005;48.838;10.112;2023-07-20T12:42:44;26.30;99.90
17762;DHT22;9005;48.838;10.112;2023-07-20T12:45:11;26.20;99.90
17762;DHT22;9005;48.838;10.112;2023-07-20T12:47:39;26.00;99.90
17762;DHT22;9005;48.838;10.112;2023-07-20T12:50:07;26.60;99.90
17762;DHT22;9005;48.838;10.112;2023-07-20T12:52:36;27.10;99.90
17762;DHT22;9005;48.838;10.112;2023-07-20T13:14:54;27.80;99.90
17762;DHT22;9005;48.838;10.112;2023-07-20T13:17:22;27.90;99.90
17762;DHT22;9005;48.838;10.112;2023-07-20T13:19:49;29.00;99.90
17762;DHT22;9005;48.838;10.112;2023-07-20T13:22:15;29.60;99.90
17762;DHT22;9005;48.838;10.112;2023-07-20T13:24:45;29.50;99.90
17762;DHT22;9005;48.838;10.112;2023-07-20T13:27:12;29.20;99.90
17762;DHT22;9005;48.838;10.112;2023-07-20T13:29:40;28.70;99.90
17762;DHT22;9005;48.838;10.112;2023-07-20T13:32:07;27.80;99.90
17762;DHT22;9005;48.838;10.112;2023-07-20T13:34:34;27.10;99.90
17762;DHT22;9005;48.838;10.112;2023-07-20T13:37:02;26.40;1.00
17762;DHT22;9005;48.838;10.112;2023-07-20T13:39:28;26.30;1.00
17762;DHT22;9005;48.838;10.112;2023-07-20T13:41:55;25.70;1.00
17762;DHT22;9005;48.838;10.112;2023-07-20T13:44:22;25.30;99.90
17762;DHT22;9005;48.838;10.112;2023-07-20T13:46:50;25.40;1.00
17762;DHT22;9005;48.838;10.112;2023-07-20T13:49:17;25.50;1.00
17762;DHT22;9005;48.838;10.112;2023-07-20T13:51:43;25.80;1.00
17762;DHT22;9005;48.838;10.112;2023-07-20T13:54:10;26.80;1.00
17762;DHT22;9005;48.838;10.112;2023-07-20T13:56:37;27.60;99.90
17762;DHT22;9005;48.838;10.112;2023-07-20T13:59:04;27.80;99.90
17762;DHT22;9005;48.838;10.112;2023-07-20T14:01:30;28.50;99.90
17762;DHT22;9005;48.838;10.112;2023-07-20T14:04:00;29.10;99.90
17762;DHT22;9005;48.838;10.112;2023-07-20T14:06:30;29.80;1.00
17762;DHT22;9005;48.838;10.112;2023-07-20T14:08:57;29.90;1.00
17762;DHT22;9005;48.838;10.112;2023-07-20T14:11:24;29.60;99.90
17762;DHT22;9005;48.838;10.112;2023-07-20T14:13:51;29.20;99.90
17762;DHT22;9005;48.838;10.112;2023-07-20T14:16:19;29.20;99.90
17762;DHT22;9005;48.838;10.112;2023-07-20T14:18:46;29.60;99.90
17762;DHT22;9005;48.838;10.112;2023-07-20T14:21:15;29.30;99.90
17762;DHT22;9005;48.838;10.112;2023-07-20T14:23:44;28.30;99.90
17762;DHT22;9005;48.838;10.112;2023-07-20T14:26:11;28.10;99.90
17762;DHT22;9005;48.838;10.112;2023-07-20T14:28:38;28.00;99.90
17762;DHT22;9005;48.838;10.112;2023-07-20T14:31:05;28.60;99.90
17762;DHT22;9005;48.838;10.112;2023-07-20T14:33:32;29.30;99.90
17762;DHT22;9005;48.838;10.112;2023-07-20T14:35:59;29.50;99.90
17762;DHT22;9005;48.838;10.112;2023-07-20T14:38:28;29.60;99.90
17762;DHT22;9005;48.838;10.112;2023-07-20T14:40:55;29.90;99.90
17762;DHT22;9005;48.838;10.112;2023-07-20T14:43:22;29.60;99.90
17762;DHT22;9005;48.838;10.112;2023-07-20T14:45:48;29.50;99.90
17762;DHT22;9005;48.838;10.112;2023-07-20T14:48:15;29.60;99.90
17762;DHT22;9005;48.838;10.112;2023-07-20T14:50:42;29.70;99.90
17762;DHT22;9005;48.838;10.112;2023-07-20T14:53:10;29.50;99.90
17762;DHT22;9005;48.838;10.112;2023-07-20T14:55:39;29.90;99.90
17762;DHT22;9005;48.838;10.112;2023-07-20T14:58:05;30.00;99.90
17762;DHT22;9005;48.838;10.112;2023-07-20T15:00:33;30.50;99.90
17762;DHT22;9005;48.838;10.112;2023-07-20T15:03:00;31.30;99.90
17762;DHT22;9005;48.838;10.112;2023-07-20T15:05:27;31.40;99.90
17762;DHT22;9005;48.838;10.112;2023-07-20T15:07:54;31.20;99.90
17762;DHT22;9005;48.838;10.112;2023-07-20T15:10:21;31.00;99.90
17762;DHT22;9005;48.838;10.112;2023-07-20T15:12:49;30.30;99.90
17762;DHT22;9005;48.838;10.112;2023-07-20T15:15:16;29.40;99.90
17762;DHT22;9005;48.838;10.112;2023-07-20T15:17:44;28.50;99.90
17762;DHT22;9005;48.838;10.112;2023-07-20T15:20:12;28.40;99.90
17762;DHT22;9005;48.838;10.112;2023-07-20T15:22:40;29.40;99.90
17762;DHT22;9005;48.838;10.112;2023-07-20T15:25:08;29.40;99.90
17762;DHT22;9005;48.838;10.112;2023-07-20T15:27:36;30.40;99.90
17762;DHT22;9005;48.838;10.112;2023-07-20T15:30:06;31.00;99.90
17762;DHT22;9005;48.838;10.112;2023-07-20T15:32:33;30.60;99.90
17762;DHT22;9005;48.838;10.112;2023-07-20T15:34:59;30.20;99.90
17762;DHT22;9005;48.838;10.112;2023-07-20T15:37:28;29.90;99.90
17762;DHT22;9005;48.838;10.112;2023-07-20T15:39:54;29.70;99.90
17762;DHT22;9005;48.838;10.112;2023-07-20T15:42:21;29.50;99.90
17762;DHT22;9005;48.838;10.112;2023-07-20T15:44:48;29.30;99.90
17762;DHT22;9005;48.838;10.112;2023-07-20T15:47:16;28.80;99.90
17762;DHT22;9005;48.838;10.112;2023-07-20T15:49:43;28.40;99.90
17762;DHT22;9005;48.838;10.112;2023-07-20T15:52:09;28.30;99.90
17762;DHT22;9005;48.838;10.112;2023-07-20T15:54:38;28.40;99.90
17762;DHT22;9005;48.838;10.112;2023-07-20T15:57:06;28.60;99.90
17762;DHT22;9005;48.838;10.112;2023-07-20T15:59:33;28.80;99.90
17762;DHT22;9005;48.838;10.112;2023-07-20T16:02:00;29.20;99.90
17762;DHT22;9005;48.838;10.112;2023-07-20T16:04:31;29.70;99.90
17762;DHT22;9005;48.838;10.112;2023-07-20T16:06:58;29.90;99.90
17762;DHT22;9005;48.838;10.112;2023-07-20T16:09:24;29.60;99.90
17762;DHT22;9005;48.838;10.112;2023-07-20T16:11:52;29.40;99.90
17762;DHT22;9005;48.838;10.112;2023-07-20T16:14:18;29.20;99.90
17762;DHT22;9005;48.838;10.112;2023-07-20T16:16:45;29.00;99.90
17762;DHT22;9005;48.838;10.112;2023-07-20T16:19:12;29.10;99.90
17762;DHT22;9005;48.838;10.112;2023-07-20T16:21:40;29.50;99.90
17762;DHT22;9005;48.838;10.112;2023-07-20T16:24:07;29.50;99.90
17762;DHT22;9005;48.838;10.112;2023-07-20T16:26:34;29.40;99.90
17762;DHT22;9005;48.838;10.112;2023-07-20T16:29:00;29.30;99.90
17762;DHT22;9005;48.838;10.112;2023-07-20T16:31:27;28.80;99.90
17762;DHT22;9005;48.838;10.112;2023-07-20T16:33:54;28.30;99.90
17762;DHT22;9005;48.838;10.112;2023-07-20T16:36:21;28.20;99.90
17762;DHT22;9005;48.838;10.112;2023-07-20T16:38:49;28.10;99.90
17762;DHT22;9005;48.838;10.112;2023-07-20T16:41:15;28.00;99.90
17762;DHT22;9005;48.838;10.112;2023-07-20T16:43:42;27.90;99.90
17762;DHT22;9005;48.838;10.112;2023-07-20T16:46:09;27.90;99.90
17762;DHT22;9005;48.838;10.112;2023-07-20T16:48:36;28.00;99.90
17762;DHT22;9005;48.838;10.112;2023-07-20T16:51:04;28.20;99.90
17762;DHT22;9005;48.838;10.112;2023-07-20T16:53:30;28.40;99.90